createdAt,value
2019-05-17T00:02:20.779Z,14.40
2019-05-17T00:04:53.534Z,14.10
2019-05-17T00:07:27.309Z,13.70
2019-05-17T00:10:00.003Z,13.40
2019-05-17T00:12:33.382Z,13.50
2019-05-17T00:15:07.169Z,13.40
2019-05-17T00:17:39.976Z,13.30
2019-05-17T00:20:12.818Z,13.30
2019-05-17T00:22:47.099Z,13.50
2019-05-17T00:25:19.141Z,13.50
2019-05-17T00:27:51.565Z,13.50
2019-05-17T00:30:26.386Z,13.70
2019-05-17T00:32:58.224Z,14.20
2019-05-17T00:35:30.432Z,14.40
2019-05-17T00:38:03.093Z,14.30
2019-05-17T00:40:36.652Z,14.10
2019-05-17T00:43:09.341Z,14.10
2019-05-17T00:45:41.660Z,13.00
2019-05-17T00:48:14.097Z,13.00
2019-05-17T00:50:52.333Z,13.20
2019-05-17T00:53:20.354Z,12.80
2019-05-17T00:55:52.710Z,12.60
2019-05-17T00:58:26.282Z,12.70
2019-05-17T01:00:58.910Z,12.80
2019-05-17T01:03:32.377Z,12.90
2019-05-17T01:06:06.286Z,12.90
2019-05-17T01:08:39.349Z,12.90
2019-05-17T01:11:11.705Z,13.10
2019-05-17T01:13:46.343Z,13.20
2019-05-17T01:16:18.282Z,13.20
2019-05-17T01:18:50.659Z,13.30
2019-05-17T01:21:23.343Z,13.10
2019-05-17T01:23:56.229Z,12.90
2019-05-17T01:26:28.768Z,12.70
2019-05-17T01:29:01.159Z,12.60
2019-05-17T01:31:34.482Z,12.70
2019-05-17T01:34:07.489Z,12.70
2019-05-17T01:36:39.943Z,12.80
2019-05-17T01:39:17.286Z,12.80
2019-05-17T01:41:46.842Z,12.90
2019-05-17T01:44:19.382Z,12.70
2019-05-17T01:46:51.701Z,12.70
2019-05-17T01:49:24.206Z,12.60
2019-05-17T01:51:56.946Z,12.60
2019-05-17T01:54:29.411Z,12.70
2019-05-17T01:57:01.733Z,12.70
2019-05-17T01:59:34.127Z,12.70
2019-05-17T02:02:07.800Z,12.80
2019-05-17T02:04:40.157Z,12.70
2019-05-17T02:07:12.478Z,12.70
2019-05-17T02:09:47.518Z,12.70
2019-05-17T02:12:19.428Z,12.90
2019-05-17T02:14:52.232Z,13.00
2019-05-17T02:17:26.463Z,13.00
2019-05-17T02:19:58.648Z,13.10
2019-05-17T02:22:31.568Z,13.10
2019-05-17T02:25:03.938Z,13.00
2019-05-17T02:27:41.257Z,13.00
2019-05-17T02:30:14.080Z,12.90
2019-05-17T02:32:46.861Z,12.90
2019-05-17T02:35:22.848Z,12.90
2019-05-17T02:37:53.577Z,13.00
2019-05-17T02:40:26.203Z,12.90
2019-05-17T02:43:02.800Z,12.80
2019-05-17T02:45:33.476Z,12.70
2019-05-17T02:48:06.063Z,12.60
2019-05-17T02:50:38.590Z,12.50
2019-05-17T02:53:13.251Z,12.50
2019-05-17T02:55:45.210Z,12.50
2019-05-17T02:58:17.648Z,12.50
2019-05-17T03:00:52.914Z,12.50
2019-05-17T03:03:23.960Z,12.30
2019-05-17T03:05:56.691Z,12.20
2019-05-17T03:08:29.109Z,12.20
2019-05-17T03:11:03.283Z,12.30
2019-05-17T03:13:36.295Z,12.30
2019-05-17T03:16:08.659Z,12.30
2019-05-17T03:18:43.759Z,12.20
2019-05-17T03:21:14.909Z,12.30
2019-05-17T03:23:48.003Z,12.30
2019-05-17T03:26:22.858Z,12.30
2019-05-17T03:28:54.236Z,12.30
2019-05-17T03:31:27.563Z,12.40
2019-05-17T03:34:06.736Z,12.40
2019-05-17T03:36:37.118Z,12.50
2019-05-17T03:39:12.808Z,12.50
2019-05-17T03:41:44.365Z,12.50
2019-05-17T03:44:16.897Z,12.50
2019-05-17T03:46:49.395Z,12.40
2019-05-17T03:49:22.422Z,12.30
2019-05-17T03:51:55.262Z,12.20
2019-05-17T03:54:27.599Z,12.20
2019-05-17T03:57:02.667Z,12.20
2019-05-17T03:59:33.804Z,12.20
2019-05-17T04:02:06.690Z,12.10
2019-05-17T04:04:42.675Z,12.00
2019-05-17T04:07:14.186Z,12.00
2019-05-17T04:09:46.613Z,12.10
2019-05-17T04:12:22.873Z,12.00
2019-05-17T04:14:53.705Z,12.10
2019-05-17T04:17:26.143Z,12.00
2019-05-17T04:19:58.478Z,12.10
2019-05-17T04:22:33.073Z,12.10
2019-05-17T04:25:04.770Z,12.10
2019-05-17T04:27:37.127Z,12.10
2019-05-17T04:30:12.365Z,12.10
2019-05-17T04:32:44.538Z,12.20
2019-05-17T04:35:17.207Z,12.20
2019-05-17T04:37:52.790Z,12.20
2019-05-17T04:40:23.838Z,12.20
2019-05-17T04:42:56.380Z,12.20
2019-05-17T04:45:28.796Z,12.30
2019-05-17T04:48:04.162Z,12.30
2019-05-17T04:50:35.920Z,12.30
2019-05-17T04:53:08.345Z,12.30
2019-05-17T04:55:43.158Z,12.30
2019-05-17T04:58:14.454Z,12.30
2019-05-17T05:00:47.431Z,12.30
2019-05-17T05:03:22.861Z,12.30
2019-05-17T05:05:53.846Z,12.30
2019-05-17T05:08:26.257Z,12.30
2019-05-17T05:10:58.805Z,12.30
2019-05-17T05:13:33.404Z,12.30
2019-05-17T05:16:05.769Z,12.20
2019-05-17T05:18:38.419Z,12.20
2019-05-17T05:21:12.234Z,12.20
2019-05-17T05:23:45.261Z,12.20
2019-05-17T05:26:17.603Z,12.30
2019-05-17T05:28:52.658Z,12.30
2019-05-17T05:31:24.078Z,12.30
2019-05-17T05:33:56.459Z,12.30
2019-05-17T05:36:28.894Z,12.30
2019-05-17T05:39:02.434Z,12.20
2019-05-17T05:41:35.010Z,12.20
2019-05-17T05:44:07.652Z,12.20
2019-05-17T05:46:42.000Z,12.30
2019-05-17T05:49:13.802Z,12.30
2019-05-17T05:51:46.122Z,12.20
2019-05-17T05:54:18.508Z,12.10
2019-05-17T05:56:52.457Z,12.10
2019-05-17T05:59:24.927Z,12.10
2019-05-17T06:01:57.257Z,12.00
2019-05-17T06:04:31.659Z,11.90
2019-05-17T06:07:03.389Z,12.00
2019-05-17T06:09:36.057Z,11.90
2019-05-17T06:12:22.697Z,11.90
2019-05-17T06:14:42.713Z,11.90
2019-05-17T06:17:15.266Z,11.80
2019-05-17T06:19:48.987Z,11.80
2019-05-17T06:22:22.399Z,11.80
2019-05-17T06:24:54.931Z,11.80
2019-05-17T06:27:27.271Z,11.90
2019-05-17T06:30:01.419Z,11.90
2019-05-17T06:32:33.406Z,11.80
2019-05-17T06:35:06.647Z,11.80
2019-05-17T06:37:38.986Z,11.80
2019-05-17T06:40:13.100Z,11.90
2019-05-17T06:42:45.912Z,11.90
2019-05-17T06:45:18.675Z,12.00
2019-05-17T06:47:51.845Z,12.00
2019-05-17T06:50:24.559Z,11.90
2019-05-17T06:52:57.199Z,11.80
2019-05-17T06:55:31.361Z,11.80
2019-05-17T06:58:03.870Z,11.90
2019-05-17T07:00:36.547Z,11.80
2019-05-17T07:03:09.609Z,11.80
2019-05-17T07:05:43.822Z,11.80
2019-05-17T07:08:16.155Z,11.70
2019-05-17T07:10:50.237Z,11.60
2019-05-17T07:13:22.269Z,11.70
2019-05-17T07:15:55.551Z,11.90
2019-05-17T07:18:30.052Z,11.90
2019-05-17T07:21:03.445Z,11.90
2019-05-17T07:23:36.359Z,11.70
2019-05-17T07:26:09.813Z,11.70
2019-05-17T07:28:42.822Z,11.60
2019-05-17T07:31:15.180Z,11.70
2019-05-17T07:33:47.519Z,11.70
2019-05-17T07:36:19.973Z,11.70
2019-05-17T07:38:52.309Z,11.70
2019-05-17T07:41:24.693Z,11.70
2019-05-17T07:43:57.571Z,11.80
2019-05-17T07:46:30.125Z,11.90
2019-05-17T07:49:02.448Z,11.90
2019-05-17T07:51:35.885Z,11.90
2019-05-17T07:54:10.283Z,11.90
2019-05-17T07:56:42.335Z,11.90
2019-05-17T07:59:14.858Z,11.90
2019-05-17T08:01:47.316Z,11.90
2019-05-17T08:04:20.447Z,12.10
2019-05-17T08:06:52.995Z,12.10
2019-05-17T08:09:25.397Z,12.10
2019-05-17T08:11:59.605Z,12.10
2019-05-17T08:14:33.591Z,12.00
2019-05-17T08:17:05.828Z,12.00
2019-05-17T08:19:40.282Z,12.00
2019-05-17T08:22:12.785Z,12.00
2019-05-17T08:24:45.119Z,12.00
2019-05-17T08:27:19.926Z,12.10
2019-05-17T08:29:51.833Z,12.20
2019-05-17T08:32:24.539Z,12.20
2019-05-17T08:35:00.123Z,12.20
2019-05-17T08:37:31.109Z,12.20
2019-05-17T08:40:03.442Z,12.20
2019-05-17T08:42:35.807Z,12.20
2019-05-17T08:45:09.683Z,12.20
2019-05-17T08:47:42.486Z,12.10
2019-05-17T08:50:15.046Z,12.10
2019-05-17T08:52:49.322Z,12.10
2019-05-17T08:55:21.226Z,12.00
2019-05-17T08:57:54.034Z,12.00
2019-05-17T09:03:06.510Z,11.70
2019-05-17T09:05:41.406Z,11.60
2019-05-17T09:08:12.720Z,11.50
2019-05-17T09:10:45.049Z,11.40
2019-05-17T09:13:19.393Z,11.40
2019-05-17T09:15:51.163Z,11.20
2019-05-17T09:18:24.409Z,11.30
2019-05-17T09:20:56.761Z,11.20
2019-05-17T09:23:30.386Z,11.10
2019-05-17T09:26:04.042Z,11.00
2019-05-17T09:28:36.491Z,10.90
2019-05-17T09:31:10.404Z,10.90
2019-05-17T09:33:42.600Z,11.00
2019-05-17T09:36:14.922Z,11.10
2019-05-17T09:38:49.326Z,11.10
2019-05-17T09:41:21.805Z,11.00
2019-05-17T09:43:54.623Z,11.00
2019-05-17T09:46:26.949Z,11.00
2019-05-17T09:49:01.245Z,11.10
2019-05-17T09:51:33.737Z,11.10
2019-05-17T09:54:06.190Z,11.20
2019-05-17T09:56:39.492Z,11.10
2019-05-17T09:59:12.075Z,11.10
2019-05-17T10:01:44.391Z,11.20
2019-05-17T10:04:16.762Z,11.20
2019-05-17T10:06:51.214Z,11.20
2019-05-17T10:09:23.777Z,11.10
2019-05-17T10:11:56.368Z,11.10
2019-05-17T10:14:31.289Z,11.00
2019-05-17T10:17:02.483Z,11.00
2019-05-17T10:19:35.999Z,10.90
2019-05-17T10:22:10.345Z,10.90
2019-05-17T10:24:43.775Z,10.80
2019-05-17T10:27:16.434Z,10.80
2019-05-17T10:29:50.142Z,10.80
2019-05-17T10:32:22.692Z,10.80
2019-05-17T10:34:55.407Z,10.80
2019-05-17T10:37:30.120Z,10.80
2019-05-17T10:40:01.615Z,10.80
2019-05-17T10:42:34.935Z,10.80
2019-05-17T10:45:10.971Z,10.80
2019-05-17T10:47:43.650Z,10.80
2019-05-17T10:50:16.470Z,10.80
2019-05-17T10:52:48.792Z,10.70
2019-05-17T10:55:21.476Z,10.60
2019-05-17T10:57:53.776Z,10.50
2019-05-17T11:00:26.896Z,10.70
2019-05-17T11:03:00.467Z,10.70
2019-05-17T11:05:33.371Z,10.70
2019-05-17T11:08:06.005Z,10.60
2019-05-17T11:10:39.316Z,10.60
2019-05-17T11:13:11.891Z,10.80
2019-05-17T11:15:44.628Z,10.70
2019-05-17T11:18:16.943Z,10.80
2019-05-17T11:20:50.084Z,11.00
2019-05-17T11:23:22.434Z,11.00
2019-05-17T11:25:54.794Z,11.10
2019-05-17T11:28:27.549Z,11.10
2019-05-17T11:31:00.193Z,11.20
2019-05-17T11:33:32.533Z,11.20
2019-05-17T11:36:04.990Z,11.20
2019-05-17T11:38:37.306Z,11.30
2019-05-17T11:41:20.384Z,11.30
2019-05-17T11:43:43.857Z,11.50
2019-05-17T11:46:16.614Z,11.50
2019-05-17T11:48:48.948Z,11.50
2019-05-17T11:51:22.004Z,11.50
2019-05-17T11:53:55.037Z,11.40
2019-05-17T11:56:27.565Z,11.40
2019-05-17T11:58:59.888Z,11.40
2019-05-17T12:01:32.821Z,11.30
2019-05-17T12:04:05.359Z,11.40
2019-05-17T12:06:38.030Z,11.40
2019-05-17T12:09:10.482Z,11.40
2019-05-17T12:11:43.294Z,11.40
2019-05-17T12:14:15.619Z,11.40
2019-05-17T12:16:47.946Z,11.40
2019-05-17T12:19:20.691Z,11.40
2019-05-17T12:21:54.054Z,11.40
2019-05-17T12:24:26.377Z,11.50
2019-05-17T12:26:58.772Z,11.40
2019-05-17T12:29:31.097Z,11.40
2019-05-17T12:32:03.482Z,11.30
2019-05-17T12:34:35.978Z,11.30
2019-05-17T12:37:08.766Z,11.40
2019-05-17T12:39:41.088Z,11.30
2019-05-17T12:42:13.511Z,11.30
2019-05-17T12:44:45.874Z,11.40
2019-05-17T12:47:18.507Z,11.30
2019-05-17T12:49:50.827Z,11.40
2019-05-17T12:52:23.701Z,11.40
2019-05-17T12:54:56.005Z,11.50
2019-05-17T12:57:28.679Z,11.50
2019-05-17T13:00:01.317Z,11.40
2019-05-17T13:02:33.655Z,11.30
2019-05-17T13:05:06.851Z,11.00
2019-05-17T13:07:40.703Z,10.90
2019-05-17T13:10:13.654Z,10.80
2019-05-17T13:12:46.034Z,10.80
2019-05-17T13:15:18.440Z,10.70
2019-05-17T13:17:52.156Z,10.80
2019-05-17T13:20:24.716Z,10.80
2019-05-17T13:22:58.129Z,10.70
2019-05-17T13:25:30.459Z,10.70
2019-05-17T13:28:02.802Z,10.60
2019-05-17T13:30:35.152Z,10.70
2019-05-17T13:33:07.818Z,10.60
2019-05-17T13:35:40.658Z,10.70
2019-05-17T13:38:13.606Z,10.80
2019-05-17T13:40:45.940Z,10.80
2019-05-17T13:43:18.680Z,10.80
2019-05-17T13:45:51.421Z,10.80
2019-05-17T13:48:24.186Z,10.80
2019-05-17T13:50:56.493Z,10.80
2019-05-17T13:53:29.006Z,10.90
2019-05-17T13:56:01.383Z,10.90
2019-05-17T13:58:34.121Z,11.00
2019-05-17T14:01:06.439Z,11.00
2019-05-17T14:03:39.254Z,11.00
2019-05-17T14:06:12.019Z,11.00
2019-05-17T14:08:44.382Z,11.10
2019-05-17T14:11:16.686Z,11.00
2019-05-17T14:13:49.029Z,10.80
2019-05-17T14:16:21.826Z,10.90
2019-05-17T14:18:54.187Z,10.90
2019-05-17T14:21:26.835Z,11.00
2019-05-17T14:24:00.360Z,11.00
2019-05-17T14:26:32.683Z,11.10
2019-05-17T14:29:05.423Z,11.20
2019-05-17T14:31:37.782Z,11.20
2019-05-17T14:34:10.465Z,11.30
2019-05-17T14:36:42.786Z,11.30
2019-05-17T14:39:15.118Z,11.30
2019-05-17T14:41:47.463Z,11.30
2019-05-17T14:44:20.175Z,11.30
2019-05-17T14:46:52.479Z,11.40
2019-05-17T14:49:24.802Z,11.50
2019-05-17T14:51:57.122Z,11.60
2019-05-17T14:54:30.243Z,11.70
2019-05-17T14:57:02.795Z,11.80
2019-05-17T14:59:35.158Z,11.90
2019-05-17T15:02:07.522Z,12.10
2019-05-17T15:04:39.863Z,12.20
2019-05-17T15:07:12.210Z,12.10
2019-05-17T15:09:44.847Z,12.20
2019-05-17T15:12:27.785Z,12.40
2019-05-17T15:14:51.331Z,12.20
2019-05-17T15:17:24.084Z,12.50
2019-05-17T15:19:56.482Z,12.40
2019-05-17T15:22:28.872Z,12.30
2019-05-17T15:25:02.397Z,12.50
2019-05-17T15:27:35.009Z,12.60
2019-05-17T15:30:11.223Z,12.70
2019-05-17T15:32:43.675Z,12.70
2019-05-17T15:35:16.289Z,12.80
2019-05-17T15:37:48.753Z,13.00
2019-05-17T15:40:21.573Z,13.30
2019-05-17T15:42:54.242Z,13.20
2019-05-17T15:45:27.196Z,13.10
2019-05-17T15:47:59.679Z,12.60
2019-05-17T15:50:32.131Z,12.60
2019-05-17T15:53:04.825Z,12.60
2019-05-17T15:55:37.436Z,12.50
2019-05-17T15:58:09.778Z,12.50
2019-05-17T16:00:42.218Z,12.60
2019-05-17T16:03:14.575Z,12.70
2019-05-17T16:05:47.175Z,12.80
2019-05-17T16:08:19.534Z,13.10
2019-05-17T16:10:52.046Z,13.30
2019-05-17T16:13:24.960Z,13.80
2019-05-17T16:15:57.935Z,14.20
2019-05-17T16:18:30.663Z,14.30
2019-05-17T16:21:03.488Z,14.20
2019-05-17T16:23:36.431Z,14.20
2019-05-17T16:26:09.870Z,14.10
2019-05-17T16:28:42.612Z,13.70
2019-05-17T16:31:15.441Z,13.50
2019-05-17T16:33:50.883Z,13.90
2019-05-17T16:36:23.179Z,13.90
2019-05-17T16:38:55.514Z,13.70
2019-05-17T16:41:28.283Z,13.60
2019-05-17T16:44:01.023Z,13.90
2019-05-17T16:46:33.729Z,14.40
2019-05-17T16:49:06.397Z,14.90
2019-05-17T16:51:39.153Z,15.10
2019-05-17T16:54:11.847Z,15.20
2019-05-17T16:56:44.744Z,15.40
2019-05-17T16:59:17.131Z,15.00
2019-05-17T17:01:49.949Z,15.60
2019-05-17T17:04:22.310Z,15.20
2019-05-17T17:06:54.815Z,15.20
2019-05-17T17:09:27.304Z,15.00
2019-05-17T17:12:00.035Z,15.30
2019-05-17T17:14:32.705Z,15.70
2019-05-17T17:17:10.877Z,15.80
2019-05-17T17:19:39.401Z,15.60
2019-05-17T17:22:12.353Z,15.90
2019-05-17T17:24:45.111Z,16.30
2019-05-17T17:27:17.634Z,15.60
2019-05-17T17:29:49.965Z,15.30
2019-05-17T17:32:22.334Z,15.10
2019-05-17T17:34:54.686Z,15.80
2019-05-17T17:37:27.046Z,16.30
2019-05-17T17:39:59.493Z,16.30
2019-05-17T17:42:31.985Z,16.70
2019-05-17T17:45:04.818Z,16.80
2019-05-17T17:47:37.306Z,17.00
2019-05-17T17:50:10.142Z,16.10
2019-05-17T17:52:42.802Z,16.30
2019-05-17T17:55:15.270Z,16.40
2019-05-17T17:57:47.998Z,16.80
2019-05-17T18:00:22.742Z,16.20
2019-05-17T18:02:55.193Z,16.60
2019-05-17T18:05:27.627Z,16.90
2019-05-17T18:08:00.092Z,17.00
2019-05-17T18:10:34.731Z,16.60
2019-05-17T18:13:07.415Z,17.00
2019-05-17T18:15:42.718Z,16.90
2019-05-17T18:18:15.451Z,17.20
2019-05-17T18:20:48.100Z,17.30
2019-05-17T18:23:23.326Z,17.60
2019-05-17T18:25:54.589Z,17.80
2019-05-17T18:28:27.493Z,17.80
2019-05-17T18:30:59.828Z,18.10
2019-05-17T18:33:32.173Z,18.00
2019-05-17T18:36:04.885Z,18.00
2019-05-17T18:38:38.726Z,18.70
2019-05-17T18:41:11.163Z,18.40
2019-05-17T18:43:43.759Z,18.50
2019-05-17T18:46:16.100Z,18.10
2019-05-17T18:48:48.868Z,18.50
2019-05-17T18:51:21.577Z,18.60
2019-05-17T18:53:54.533Z,18.60
2019-05-17T18:56:26.866Z,18.60
2019-05-17T18:58:59.572Z,18.80
2019-05-17T19:01:32.310Z,18.70
2019-05-17T19:04:04.964Z,19.30
2019-05-17T19:06:37.384Z,18.10
2019-05-17T19:09:10.410Z,19.00
2019-05-17T19:11:42.722Z,19.30
2019-05-17T19:14:15.284Z,19.70
2019-05-17T19:16:47.625Z,20.20
2019-05-17T19:19:20.318Z,20.60
2019-05-17T19:21:52.637Z,20.20
2019-05-17T19:24:25.153Z,21.50
2019-05-17T19:26:57.482Z,23.10
2019-05-17T19:29:30.841Z,24.10
2019-05-17T19:32:03.316Z,25.30
2019-05-17T19:34:35.718Z,26.30
2019-05-17T19:37:08.397Z,26.80
2019-05-17T19:39:41.014Z,26.70
2019-05-17T19:42:13.650Z,29.00
2019-05-17T19:44:58.008Z,30.10
2019-05-17T19:47:20.374Z,30.00
2019-05-17T19:49:52.725Z,30.90
2019-05-17T19:52:25.054Z,30.40
2019-05-17T19:54:57.410Z,28.50
2019-05-17T19:57:29.744Z,29.10
2019-05-17T20:00:02.183Z,28.30
2019-05-17T20:02:34.976Z,28.40
2019-05-17T20:05:08.420Z,28.50
2019-05-17T20:07:40.838Z,28.70
2019-05-17T20:10:13.707Z,27.40
2019-05-17T20:12:46.429Z,29.50
2019-05-17T20:15:32.331Z,29.10
2019-05-17T20:17:53.111Z,31.20
2019-05-17T20:20:25.855Z,29.90
2019-05-17T20:22:58.862Z,28.90
2019-05-17T20:25:31.709Z,30.50
2019-05-17T20:28:04.574Z,28.50
2019-05-17T20:30:37.611Z,30.40
2019-05-17T20:33:10.457Z,29.10
2019-05-17T20:35:42.830Z,30.10
2019-05-17T20:38:15.185Z,29.10
2019-05-17T20:40:47.997Z,30.00
2019-05-17T20:43:20.544Z,31.10
2019-05-17T20:45:54.193Z,31.70
2019-05-17T20:48:26.515Z,31.80
2019-05-17T20:50:58.963Z,31.70
2019-05-17T20:53:31.753Z,32.70
2019-05-17T20:56:04.121Z,30.60
2019-05-17T20:58:36.920Z,30.70
2019-05-17T21:01:09.260Z,31.80
2019-05-17T21:03:41.587Z,30.90
2019-05-17T21:06:13.931Z,30.20
2019-05-17T21:08:46.730Z,32.30
2019-05-17T21:11:19.437Z,33.70
2019-05-17T21:13:51.751Z,33.40
2019-05-17T21:16:25.621Z,31.50
2019-05-17T21:18:58.279Z,29.60
2019-05-17T21:21:30.984Z,31.00
2019-05-17T21:24:04.311Z,31.30
2019-05-17T21:26:37.417Z,32.10
2019-05-17T21:29:09.760Z,33.00
2019-05-17T21:31:42.510Z,32.00
2019-05-17T21:34:15.177Z,32.60
2019-05-17T21:36:48.223Z,32.20
2019-05-17T21:39:20.782Z,32.30
2019-05-17T21:41:53.561Z,34.60
2019-05-17T21:44:25.889Z,33.90
2019-05-17T21:47:04.648Z,34.80
2019-05-17T21:49:32.547Z,33.00
2019-05-17T21:52:05.051Z,33.60
2019-05-17T21:54:37.747Z,32.90
2019-05-17T21:57:10.104Z,30.00
2019-05-17T21:59:42.414Z,33.10
2019-05-17T22:02:14.880Z,33.50
2019-05-17T22:04:47.303Z,31.30
2019-05-17T22:07:19.666Z,30.80
2019-05-17T22:09:52.105Z,31.00
2019-05-17T22:12:24.540Z,31.40
2019-05-17T22:14:56.846Z,31.40
2019-05-17T22:17:29.377Z,34.50
2019-05-17T22:20:02.722Z,31.50
2019-05-17T22:22:35.383Z,33.60
2019-05-17T22:25:08.639Z,32.40
2019-05-17T22:27:41.346Z,33.70
2019-05-17T22:30:14.192Z,34.50
2019-05-17T22:32:46.569Z,32.20
2019-05-17T22:35:18.894Z,33.20
2019-05-17T22:37:51.251Z,33.50
2019-05-17T22:40:24.027Z,33.70
2019-05-17T22:42:56.369Z,33.00
2019-05-17T22:45:28.718Z,33.30
2019-05-17T22:48:01.281Z,34.50
2019-05-17T22:50:34.017Z,34.60
2019-05-17T22:53:06.772Z,31.50
2019-05-17T22:55:39.100Z,31.60
2019-05-17T22:58:11.459Z,33.00
2019-05-17T23:00:43.908Z,32.20
2019-05-17T23:03:16.350Z,30.50
2019-05-17T23:05:49.023Z,30.80
2019-05-17T23:08:21.392Z,31.20
2019-05-17T23:10:54.918Z,29.40
2019-05-17T23:13:27.397Z,29.80
2019-05-17T23:16:02.994Z,29.70
2019-05-17T23:18:36.533Z,31.80
2019-05-17T23:21:08.842Z,30.20
2019-05-17T23:23:41.197Z,30.00
2019-05-17T23:26:14.630Z,28.90
2019-05-17T23:28:47.142Z,29.80
2019-05-17T23:31:19.461Z,29.30
2019-05-17T23:33:52.204Z,28.20
2019-05-17T23:36:24.563Z,26.40
2019-05-17T23:38:56.903Z,27.10
2019-05-17T23:41:29.226Z,26.30
2019-05-17T23:44:01.946Z,25.30
2019-05-17T23:46:34.264Z,24.30
2019-05-17T23:49:07.119Z,23.30
2019-05-17T23:51:39.785Z,22.20
2019-05-17T23:54:12.141Z,22.10
2019-05-17T23:56:44.499Z,22.10
2019-05-17T23:59:16.875Z,21.10
